sensor_id;sensor_type;location;lat;lon;timestamp;temperature;humidity
60495;DHT22;46342;49.046;11.920;2022-12-08T00:00:54;3.80;70.60
60495;DHT22;46342;49.046;11.920;2022-12-08T00:03:20;3.80;70.60
60495;DHT22;46342;49.046;11.920;2022-12-08T00:05:47;3.80;70.70
60495;DHT22;46342;49.046;11.920;2022-12-08T00:08:32;3.80;70.70
60495;DHT22;46342;49.046;11.920;2022-12-08T00:11:17;3.70;70.60
60495;DHT22;46342;49.046;11.920;2022-12-08T00:13:43;3.70;70.60
60495;DHT22;46342;49.046;11.920;2022-12-08T00:16:09;3.70;70.60
60495;DHT22;46342;49.046;11.920;2022-12-08T00:18:35;3.70;70.60
60495;DHT22;46342;49.046;11.920;2022-12-08T00:21:01;3.70;70.60
60495;DHT22;46342;49.046;11.920;2022-12-08T00:23:27;3.70;70.60
60495;DHT22;46342;49.046;11.920;2022-12-08T00:25:53;3.70;70.70
60495;DHT22;46342;49.046;11.920;2022-12-08T00:28:18;3.70;70.80
60495;DHT22;46342;49.046;11.920;2022-12-08T00:30:44;3.70;70.80
60495;DHT22;46342;49.046;11.920;2022-12-08T00:33:11;3.70;70.80
60495;DHT22;46342;49.046;11.920;2022-12-08T00:35:37;3.70;70.80
60495;DHT22;46342;49.046;11.920;2022-12-08T00:38:02;3.70;70.90
60495;DHT22;46342;49.046;11.920;2022-12-08T00:40:29;3.70;70.90
60495;DHT22;46342;49.046;11.920;2022-12-08T00:42:54;3.60;70.90
60495;DHT22;46342;49.046;11.920;2022-12-08T00:45:20;3.70;71.00
60495;DHT22;46342;49.046;11.920;2022-12-08T00:47:46;3.70;71.10
60495;DHT22;46342;49.046;11.920;2022-12-08T00:50:11;3.70;71.20
60495;DHT22;46342;49.046;11.920;2022-12-08T00:52:37;3.70;71.20
60495;DHT22;46342;49.046;11.920;2022-12-08T00:55:03;3.70;71.30
60495;DHT22;46342;49.046;11.920;2022-12-08T00:57:29;3.70;71.30
60495;DHT22;46342;49.046;11.920;2022-12-08T00:59:55;3.70;71.30
60495;DHT22;46342;49.046;11.920;2022-12-08T01:02:21;3.70;71.40
60495;DHT22;46342;49.046;11.920;2022-12-08T01:04:47;3.70;71.40
60495;DHT22;46342;49.046;11.920;2022-12-08T01:07:13;3.70;71.40
60495;DHT22;46342;49.046;11.920;2022-12-08T01:09:38;3.70;71.40
60495;DHT22;46342;49.046;11.920;2022-12-08T01:12:05;3.70;71.40
60495;DHT22;46342;49.046;11.920;2022-12-08T01:14:31;3.70;71.40
60495;DHT22;46342;49.046;11.920;2022-12-08T01:16:56;3.70;71.40
60495;DHT22;46342;49.046;11.920;2022-12-08T01:19:22;3.70;71.40
60495;DHT22;46342;49.046;11.920;2022-12-08T01:21:47;3.70;71.40
60495;DHT22;46342;49.046;11.920;2022-12-08T01:24:17;3.80;71.60
60495;DHT22;46342;49.046;11.920;2022-12-08T01:26:43;3.80;71.60
60495;DHT22;46342;49.046;11.920;2022-12-08T01:29:09;3.80;71.60
60495;DHT22;46342;49.046;11.920;2022-12-08T01:31:35;3.80;71.60
60495;DHT22;46342;49.046;11.920;2022-12-08T01:34:00;3.80;71.60
60495;DHT22;46342;49.046;11.920;2022-12-08T01:36:28;3.80;71.60
60495;DHT22;46342;49.046;11.920;2022-12-08T01:38:58;3.80;71.60
60495;DHT22;46342;49.046;11.920;2022-12-08T01:41:26;3.80;71.60
60495;DHT22;46342;49.046;11.920;2022-12-08T01:46:24;3.80;71.60
60495;DHT22;46342;49.046;11.920;2022-12-08T01:48:53;3.80;71.70
60495;DHT22;46342;49.046;11.920;2022-12-08T01:51:21;3.80;71.60
60495;DHT22;46342;49.046;11.920;2022-12-08T01:53:47;3.80;71.60
60495;DHT22;46342;49.046;11.920;2022-12-08T01:56:30;3.80;72.50
60495;DHT22;46342;49.046;11.920;2022-12-08T01:58:56;3.90;71.70
60495;DHT22;46342;49.046;11.920;2022-12-08T02:01:22;3.80;71.60
60495;DHT22;46342;49.046;11.920;2022-12-08T02:04:00;3.80;71.60
60495;DHT22;46342;49.046;11.920;2022-12-08T02:06:27;3.90;71.70
60495;DHT22;46342;49.046;11.920;2022-12-08T02:08:55;3.90;71.70
60495;DHT22;46342;49.046;11.920;2022-12-08T02:11:22;3.90;71.70
60495;DHT22;46342;49.046;11.920;2022-12-08T02:13:49;3.90;71.70
60495;DHT22;46342;49.046;11.920;2022-12-08T02:22:13;3.90;71.80
60495;DHT22;46342;49.046;11.920;2022-12-08T02:24:51;3.90;71.60
60495;DHT22;46342;49.046;11.920;2022-12-08T02:33:25;3.90;71.70
60495;DHT22;46342;49.046;11.920;2022-12-08T02:36:04;3.90;71.90
60495;DHT22;46342;49.046;11.920;2022-12-08T02:44:10;3.90;71.90
60495;DHT22;46342;49.046;11.920;2022-12-08T02:46:55;3.90;71.70
60495;DHT22;46342;49.046;11.920;2022-12-08T02:49:29;3.90;71.80
60495;DHT22;46342;49.046;11.920;2022-12-08T02:54:37;4.00;71.90
60495;DHT22;46342;49.046;11.920;2022-12-08T02:57:16;3.90;71.70
60495;DHT22;46342;49.046;11.920;2022-12-08T03:10:27;4.00;71.80
60495;DHT22;46342;49.046;11.920;2022-12-08T03:13:10;3.90;71.70
60495;DHT22;46342;49.046;11.920;2022-12-08T03:15:37;3.90;71.80
60495;DHT22;46342;49.046;11.920;2022-12-08T03:18:05;4.00;71.80
60495;DHT22;46342;49.046;11.920;2022-12-08T03:20:32;3.90;71.80
60495;DHT22;46342;49.046;11.920;2022-12-08T03:22:59;4.00;72.00
60495;DHT22;46342;49.046;11.920;2022-12-08T03:25:30;4.00;71.70
60495;DHT22;46342;49.046;11.920;2022-12-08T03:27:58;4.00;71.80
60495;DHT22;46342;49.046;11.920;2022-12-08T03:30:24;3.90;71.70
60495;DHT22;46342;49.046;11.920;2022-12-08T03:33:06;3.90;71.70
60495;DHT22;46342;49.046;11.920;2022-12-08T03:35:36;4.00;71.80
60495;DHT22;46342;49.046;11.920;2022-12-08T03:38:14;3.90;71.70
60495;DHT22;46342;49.046;11.920;2022-12-08T03:40:40;4.00;71.70
60495;DHT22;46342;49.046;11.920;2022-12-08T03:43:06;3.90;71.50
60495;DHT22;46342;49.046;11.920;2022-12-08T03:45:32;3.90;71.50
60495;DHT22;46342;49.046;11.920;2022-12-08T03:47:58;3.90;71.50
60495;DHT22;46342;49.046;11.920;2022-12-08T03:50:24;3.90;71.50
60495;DHT22;46342;49.046;11.920;2022-12-08T03:52:50;3.90;71.50
60495;DHT22;46342;49.046;11.920;2022-12-08T03:55:15;3.90;71.50
60495;DHT22;46342;49.046;11.920;2022-12-08T03:57:41;3.90;71.50
60495;DHT22;46342;49.046;11.920;2022-12-08T04:00:08;3.90;71.40
60495;DHT22;46342;49.046;11.920;2022-12-08T04:02:37;3.90;71.40
60495;DHT22;46342;49.046;11.920;2022-12-08T04:05:02;3.90;71.30
60495;DHT22;46342;49.046;11.920;2022-12-08T04:07:28;3.90;71.30
60495;DHT22;46342;49.046;11.920;2022-12-08T04:09:54;3.90;71.30
60495;DHT22;46342;49.046;11.920;2022-12-08T04:12:19;3.90;71.30
60495;DHT22;46342;49.046;11.920;2022-12-08T04:14:45;3.80;71.20
60495;DHT22;46342;49.046;11.920;2022-12-08T04:17:11;3.80;71.20
60495;DHT22;46342;49.046;11.920;2022-12-08T04:19:36;3.80;71.20
60495;DHT22;46342;49.046;11.920;2022-12-08T04:22:02;3.80;71.20
60495;DHT22;46342;49.046;11.920;2022-12-08T04:24:27;3.80;71.20
60495;DHT22;46342;49.046;11.920;2022-12-08T04:26:53;3.80;71.20
60495;DHT22;46342;49.046;11.920;2022-12-08T04:29:19;3.80;71.20
60495;DHT22;46342;49.046;11.920;2022-12-08T04:31:44;3.80;71.10
60495;DHT22;46342;49.046;11.920;2022-12-08T04:34:10;3.80;71.00
60495;DHT22;46342;49.046;11.920;2022-12-08T04:36:35;3.70;70.80
60495;DHT22;46342;49.046;11.920;2022-12-08T04:39:01;3.70;70.80
60495;DHT22;46342;49.046;11.920;2022-12-08T04:41:26;3.70;70.80
60495;DHT22;46342;49.046;11.920;2022-12-08T04:43:52;3.70;70.70
60495;DHT22;46342;49.046;11.920;2022-12-08T04:46:17;3.70;70.70
60495;DHT22;46342;49.046;11.920;2022-12-08T04:48:43;3.70;70.60
60495;DHT22;46342;49.046;11.920;2022-12-08T04:51:19;3.60;70.50
60495;DHT22;46342;49.046;11.920;2022-12-08T04:53:45;3.60;70.40
60495;DHT22;46342;49.046;11.920;2022-12-08T04:56:16;3.60;70.50
60495;DHT22;46342;49.046;11.920;2022-12-08T04:58:42;3.60;70.40
60495;DHT22;46342;49.046;11.920;2022-12-08T05:01:08;3.50;70.40
60495;DHT22;46342;49.046;11.920;2022-12-08T05:03:33;3.50;70.40
60495;DHT22;46342;49.046;11.920;2022-12-08T05:05:59;3.50;70.40
60495;DHT22;46342;49.046;11.920;2022-12-08T05:08:25;3.50;70.40
60495;DHT22;46342;49.046;11.920;2022-12-08T05:10:51;3.40;70.40
60495;DHT22;46342;49.046;11.920;2022-12-08T05:13:17;3.40;70.40
60495;DHT22;46342;49.046;11.920;2022-12-08T05:15:42;3.40;70.50
60495;DHT22;46342;49.046;11.920;2022-12-08T05:18:08;3.40;70.50
60495;DHT22;46342;49.046;11.920;2022-12-08T05:20:34;3.40;70.50
60495;DHT22;46342;49.046;11.920;2022-12-08T05:23:00;3.40;70.50
60495;DHT22;46342;49.046;11.920;2022-12-08T05:25:26;3.40;70.50
60495;DHT22;46342;49.046;11.920;2022-12-08T05:27:51;3.30;70.40
60495;DHT22;46342;49.046;11.920;2022-12-08T05:30:17;3.30;70.40
60495;DHT22;46342;49.046;11.920;2022-12-08T05:32:43;3.30;70.30
60495;DHT22;46342;49.046;11.920;2022-12-08T05:35:09;3.30;70.30
60495;DHT22;46342;49.046;11.920;2022-12-08T05:37:35;3.30;70.20
60495;DHT22;46342;49.046;11.920;2022-12-08T05:40:00;3.20;70.00
60495;DHT22;46342;49.046;11.920;2022-12-08T05:42:26;3.20;70.00
60495;DHT22;46342;49.046;11.920;2022-12-08T05:44:52;3.20;70.00
60495;DHT22;46342;49.046;11.920;2022-12-08T05:47:17;3.10;69.80
60495;DHT22;46342;49.046;11.920;2022-12-08T05:49:43;3.10;69.80
60495;DHT22;46342;49.046;11.920;2022-12-08T05:52:09;3.10;70.00
60495;DHT22;46342;49.046;11.920;2022-12-08T05:54:34;3.00;69.90
60495;DHT22;46342;49.046;11.920;2022-12-08T05:57:00;3.00;69.90
60495;DHT22;46342;49.046;11.920;2022-12-08T05:59:26;3.00;69.90
60495;DHT22;46342;49.046;11.920;2022-12-08T06:01:51;3.00;70.00
60495;DHT22;46342;49.046;11.920;2022-12-08T06:04:17;2.90;69.80
60495;DHT22;46342;49.046;11.920;2022-12-08T06:06:42;2.90;69.80
60495;DHT22;46342;49.046;11.920;2022-12-08T06:09:09;2.90;69.80
60495;DHT22;46342;49.046;11.920;2022-12-08T06:11:34;2.80;69.80
60495;DHT22;46342;49.046;11.920;2022-12-08T06:14:00;2.80;69.80
60495;DHT22;46342;49.046;11.920;2022-12-08T06:16:27;2.80;69.70
60495;DHT22;46342;49.046;11.920;2022-12-08T06:18:53;2.80;69.70
60495;DHT22;46342;49.046;11.920;2022-12-08T06:21:19;2.70;69.60
60495;DHT22;46342;49.046;11.920;2022-12-08T06:23:53;2.70;69.60
60495;DHT22;46342;49.046;11.920;2022-12-08T06:26:20;2.70;69.60
60495;DHT22;46342;49.046;11.920;2022-12-08T06:28:46;2.70;69.60
60495;DHT22;46342;49.046;11.920;2022-12-08T06:31:23;2.60;69.50
60495;DHT22;46342;49.046;11.920;2022-12-08T06:33:49;2.60;69.50
60495;DHT22;46342;49.046;11.920;2022-12-08T06:36:17;2.60;69.50
60495;DHT22;46342;49.046;11.920;2022-12-08T06:38:43;2.60;69.60
60495;DHT22;46342;49.046;11.920;2022-12-08T06:41:09;2.60;69.60
60495;DHT22;46342;49.046;11.920;2022-12-08T06:43:35;2.50;69.50
60495;DHT22;46342;49.046;11.920;2022-12-08T06:46:07;2.50;69.50
60495;DHT22;46342;49.046;11.920;2022-12-08T06:48:33;2.50;69.60
60495;DHT22;46342;49.046;11.920;2022-12-08T06:53:32;2.50;69.60
60495;DHT22;46342;49.046;11.920;2022-12-08T06:55:57;2.40;69.50
60495;DHT22;46342;49.046;11.920;2022-12-08T06:58:23;2.40;69.50
60495;DHT22;46342;49.046;11.920;2022-12-08T07:00:49;2.40;69.60
60495;DHT22;46342;49.046;11.920;2022-12-08T07:03:14;2.40;69.70
60495;DHT22;46342;49.046;11.920;2022-12-08T07:05:40;2.30;69.60
60495;DHT22;46342;49.046;11.920;2022-12-08T07:08:07;2.30;69.60
60495;DHT22;46342;49.046;11.920;2022-12-08T07:10:33;2.30;69.60
60495;DHT22;46342;49.046;11.920;2022-12-08T07:12:59;2.30;69.60
60495;DHT22;46342;49.046;11.920;2022-12-08T07:15:25;2.30;69.60
60495;DHT22;46342;49.046;11.920;2022-12-08T07:17:50;2.30;69.60
60495;DHT22;46342;49.046;11.920;2022-12-08T07:20:16;2.20;69.60
60495;DHT22;46342;49.046;11.920;2022-12-08T07:22:50;2.20;69.60
60495;DHT22;46342;49.046;11.920;2022-12-08T07:25:17;2.20;69.60
60495;DHT22;46342;49.046;11.920;2022-12-08T07:27:43;2.20;69.70
60495;DHT22;46342;49.046;11.920;2022-12-08T07:30:08;2.20;69.70
60495;DHT22;46342;49.046;11.920;2022-12-08T07:32:36;2.20;69.70
60495;DHT22;46342;49.046;11.920;2022-12-08T07:35:02;2.20;69.90
60495;DHT22;46342;49.046;11.920;2022-12-08T07:37:29;2.20;70.00
60495;DHT22;46342;49.046;11.920;2022-12-08T07:39:54;2.20;70.00
60495;DHT22;46342;49.046;11.920;2022-12-08T07:42:20;2.20;70.00
60495;DHT22;46342;49.046;11.920;2022-12-08T07:44:45;2.20;70.10
60495;DHT22;46342;49.046;11.920;2022-12-08T07:47:11;2.20;70.10
60495;DHT22;46342;49.046;11.920;2022-12-08T07:49:37;2.20;70.30
60495;DHT22;46342;49.046;11.920;2022-12-08T07:52:02;2.20;70.40
60495;DHT22;46342;49.046;11.920;2022-12-08T07:54:28;2.20;70.40
60495;DHT22;46342;49.046;11.920;2022-12-08T07:56:56;2.20;70.40
60495;DHT22;46342;49.046;11.920;2022-12-08T07:59:22;2.20;70.60
60495;DHT22;46342;49.046;11.920;2022-12-08T08:01:47;2.30;70.70
60495;DHT22;46342;49.046;11.920;2022-12-08T08:04:13;2.30;70.40
60495;DHT22;46342;49.046;11.920;2022-12-08T08:06:38;2.20;70.40
60495;DHT22;46342;49.046;11.920;2022-12-08T08:09:04;2.30;70.60
60495;DHT22;46342;49.046;11.920;2022-12-08T08:11:29;2.30;70.70
60495;DHT22;46342;49.046;11.920;2022-12-08T08:13:56;2.30;70.70
60495;DHT22;46342;49.046;11.920;2022-12-08T08:16:21;2.30;70.90
60495;DHT22;46342;49.046;11.920;2022-12-08T08:18:49;2.30;70.90
60495;DHT22;46342;49.046;11.920;2022-12-08T08:21:15;2.30;71.00
60495;DHT22;46342;49.046;11.920;2022-12-08T08:23:41;2.30;71.10
60495;DHT22;46342;49.046;11.920;2022-12-08T08:26:06;2.30;71.10
60495;DHT22;46342;49.046;11.920;2022-12-08T08:28:32;2.40;71.10
60495;DHT22;46342;49.046;11.920;2022-12-08T08:30:58;2.40;71.20
60495;DHT22;46342;49.046;11.920;2022-12-08T08:33:24;2.40;71.20
60495;DHT22;46342;49.046;11.920;2022-12-08T08:35:50;2.40;71.20
60495;DHT22;46342;49.046;11.920;2022-12-08T08:38:16;2.50;71.40
60495;DHT22;46342;49.046;11.920;2022-12-08T08:40:42;2.50;71.40
60495;DHT22;46342;49.046;11.920;2022-12-08T08:43:07;2.50;71.40
60495;DHT22;46342;49.046;11.920;2022-12-08T08:45:34;2.50;71.50
60495;DHT22;46342;49.046;11.920;2022-12-08T08:47:59;2.50;71.50
60495;DHT22;46342;49.046;11.920;2022-12-08T08:50:25;2.60;71.70
60495;DHT22;46342;49.046;11.920;2022-12-08T08:52:50;2.60;71.70
60495;DHT22;46342;49.046;11.920;2022-12-08T08:55:16;2.60;71.80
60495;DHT22;46342;49.046;11.920;2022-12-08T08:57:42;2.70;71.90
60495;DHT22;46342;49.046;11.920;2022-12-08T09:00:08;2.70;72.00
60495;DHT22;46342;49.046;11.920;2022-12-08T09:02:35;2.70;72.00
60495;DHT22;46342;49.046;11.920;2022-12-08T09:05:02;2.80;72.10
60495;DHT22;46342;49.046;11.920;2022-12-08T09:07:27;2.80;72.10
60495;DHT22;46342;49.046;11.920;2022-12-08T09:09:53;2.80;72.10
60495;DHT22;46342;49.046;11.920;2022-12-08T09:12:19;2.90;72.30
60495;DHT22;46342;49.046;11.920;2022-12-08T09:14:45;2.90;72.40
60495;DHT22;46342;49.046;11.920;2022-12-08T09:17:11;2.90;72.50
60495;DHT22;46342;49.046;11.920;2022-12-08T09:19:36;3.00;72.60
60495;DHT22;46342;49.046;11.920;2022-12-08T09:22:02;3.00;72.60
60495;DHT22;46342;49.046;11.920;2022-12-08T09:24:28;3.00;72.70
60495;DHT22;46342;49.046;11.920;2022-12-08T09:26:54;3.10;72.80
60495;DHT22;46342;49.046;11.920;2022-12-08T09:29:19;3.10;72.80
60495;DHT22;46342;49.046;11.920;2022-12-08T09:31:45;3.20;72.90
60495;DHT22;46342;49.046;11.920;2022-12-08T09:34:11;3.20;72.90
60495;DHT22;46342;49.046;11.920;2022-12-08T09:36:37;3.30;73.00
60495;DHT22;46342;49.046;11.920;2022-12-08T09:39:03;3.30;73.00
60495;DHT22;46342;49.046;11.920;2022-12-08T09:41:50;3.40;73.10
60495;DHT22;46342;49.046;11.920;2022-12-08T09:46:59;3.50;73.40
60495;DHT22;46342;49.046;11.920;2022-12-08T09:49:40;3.50;73.20
60495;DHT22;46342;49.046;11.920;2022-12-08T09:52:18;3.50;73.30
60495;DHT22;46342;49.046;11.920;2022-12-08T09:54:45;3.60;73.40
60495;DHT22;46342;49.046;11.920;2022-12-08T09:57:15;3.60;73.20
60495;DHT22;46342;49.046;11.920;2022-12-08T09:59:45;3.70;73.50
60495;DHT22;46342;49.046;11.920;2022-12-08T10:02:22;3.70;73.30
60495;DHT22;46342;49.046;11.920;2022-12-08T10:04:47;3.80;73.50
60495;DHT22;46342;49.046;11.920;2022-12-08T10:07:21;3.80;73.40
60495;DHT22;46342;49.046;11.920;2022-12-08T10:10:08;3.80;73.30
60495;DHT22;46342;49.046;11.920;2022-12-08T10:12:45;3.90;73.50
60495;DHT22;46342;49.046;11.920;2022-12-08T10:18:07;4.00;73.70
60495;DHT22;46342;49.046;11.920;2022-12-08T10:20:40;4.10;73.80
60495;DHT22;46342;49.046;11.920;2022-12-08T10:23:08;4.10;73.90
60495;DHT22;46342;49.046;11.920;2022-12-08T10:25:51;4.20;73.90
60495;DHT22;46342;49.046;11.920;2022-12-08T10:28:17;4.30;74.10
60495;DHT22;46342;49.046;11.920;2022-12-08T10:30:42;4.30;74.10
60495;DHT22;46342;49.046;11.920;2022-12-08T10:33:15;4.40;74.10
60495;DHT22;46342;49.046;11.920;2022-12-08T10:35:50;4.50;74.20
60495;DHT22;46342;49.046;11.920;2022-12-08T10:40:46;4.60;73.90
60495;DHT22;46342;49.046;11.920;2022-12-08T10:43:23;4.60;73.70
60495;DHT22;46342;49.046;11.920;2022-12-08T10:45:50;4.70;73.50
60495;DHT22;46342;49.046;11.920;2022-12-08T10:51:08;4.80;73.40
60495;DHT22;46342;49.046;11.920;2022-12-08T10:53:30;4.80;73.10
60495;DHT22;46342;49.046;11.920;2022-12-08T10:58:33;4.90;72.70
60495;DHT22;46342;49.046;11.920;2022-12-08T11:01:05;4.90;72.60
60495;DHT22;46342;49.046;11.920;2022-12-08T11:03:54;4.90;72.40
60495;DHT22;46342;49.046;11.920;2022-12-08T11:06:38;4.90;72.10
60495;DHT22;46342;49.046;11.920;2022-12-08T11:11:53;4.90;72.10
60495;DHT22;46342;49.046;11.920;2022-12-08T11:17:05;5.00;72.10
60495;DHT22;46342;49.046;11.920;2022-12-08T11:19:37;4.90;72.10
60495;DHT22;46342;49.046;11.920;2022-12-08T11:27:43;5.00;72.20
60495;DHT22;46342;49.046;11.920;2022-12-08T11:30:31;5.00;72.40
60495;DHT22;46342;49.046;11.920;2022-12-08T11:33:21;5.00;72.00
60495;DHT22;46342;49.046;11.920;2022-12-08T11:35:55;5.10;72.20
60495;DHT22;46342;49.046;11.920;2022-12-08T11:38:24;5.00;72.00
60495;DHT22;46342;49.046;11.920;2022-12-08T11:41:20;5.00;72.00
60495;DHT22;46342;49.046;11.920;2022-12-08T11:46:27;5.10;72.00
60495;DHT22;46342;49.046;11.920;2022-12-08T11:49:08;5.10;72.20
60495;DHT22;46342;49.046;11.920;2022-12-08T11:51:47;5.10;72.00
60495;DHT22;46342;49.046;11.920;2022-12-08T11:54:19;5.10;71.90
60495;DHT22;46342;49.046;11.920;2022-12-08T11:56:55;5.10;72.00
60495;DHT22;46342;49.046;11.920;2022-12-08T11:59:33;5.10;71.80
60495;DHT22;46342;49.046;11.920;2022-12-08T12:02:04;5.10;71.70
60495;DHT22;46342;49.046;11.920;2022-12-08T12:04:52;5.10;71.90
60495;DHT22;46342;49.046;11.920;2022-12-08T12:07:37;5.10;71.80
60495;DHT22;46342;49.046;11.920;2022-12-08T12:10:26;5.20;71.90
60495;DHT22;46342;49.046;11.920;2022-12-08T12:13:07;5.20;71.90
60495;DHT22;46342;49.046;11.920;2022-12-08T12:20:58;5.20;72.10
60495;DHT22;46342;49.046;11.920;2022-12-08T12:23:40;5.20;71.90
60495;DHT22;46342;49.046;11.920;2022-12-08T12:26:08;5.30;71.90
60495;DHT22;46342;49.046;11.920;2022-12-08T12:28:54;5.30;72.20
60495;DHT22;46342;49.046;11.920;2022-12-08T12:31:24;5.30;72.00
60495;DHT22;46342;49.046;11.920;2022-12-08T12:33:52;5.40;72.30
60495;DHT22;46342;49.046;11.920;2022-12-08T12:36:19;5.40;72.30
60495;DHT22;46342;49.046;11.920;2022-12-08T12:38:51;5.40;72.30
60495;DHT22;46342;49.046;11.920;2022-12-08T12:41:46;5.50;72.10
60495;DHT22;46342;49.046;11.920;2022-12-08T12:52:48;5.70;71.50
60495;DHT22;46342;49.046;11.920;2022-12-08T12:59:43;5.70;71.50
60495;DHT22;46342;49.046;11.920;2022-12-08T13:07:58;5.70;70.70
60495;DHT22;46342;49.046;11.920;2022-12-08T13:10:30;5.80;70.60
60495;DHT22;46342;49.046;11.920;2022-12-08T13:15:39;5.70;70.50
60495;DHT22;46342;49.046;11.920;2022-12-08T13:18:06;5.70;70.70
60495;DHT22;46342;49.046;11.920;2022-12-08T13:20:52;5.70;70.90
60495;DHT22;46342;49.046;11.920;2022-12-08T13:23:46;5.70;70.70
60495;DHT22;46342;49.046;11.920;2022-12-08T13:26:25;5.80;70.40
60495;DHT22;46342;49.046;11.920;2022-12-08T13:42:28;5.70;70.80
60495;DHT22;46342;49.046;11.920;2022-12-08T13:47:34;5.70;70.50
60495;DHT22;46342;49.046;11.920;2022-12-08T13:50:13;5.70;70.60
60495;DHT22;46342;49.046;11.920;2022-12-08T13:53:03;5.70;70.30
60495;DHT22;46342;49.046;11.920;2022-12-08T13:55:39;5.70;70.40
60495;DHT22;46342;49.046;11.920;2022-12-08T13:58:05;5.70;70.30
60495;DHT22;46342;49.046;11.920;2022-12-08T14:00:31;5.70;70.40
60495;DHT22;46342;49.046;11.920;2022-12-08T14:02:59;5.70;70.30
60495;DHT22;46342;49.046;11.920;2022-12-08T14:05:27;5.80;70.30
60495;DHT22;46342;49.046;11.920;2022-12-08T14:08:03;5.60;70.00
60495;DHT22;46342;49.046;11.920;2022-12-08T14:10:31;5.60;70.00
60495;DHT22;46342;49.046;11.920;2022-12-08T14:13:02;5.60;70.00
60495;DHT22;46342;49.046;11.920;2022-12-08T14:15:31;5.60;69.70
60495;DHT22;46342;49.046;11.920;2022-12-08T14:17:57;5.60;69.70
60495;DHT22;46342;49.046;11.920;2022-12-08T14:20:28;5.60;69.90
60495;DHT22;46342;49.046;11.920;2022-12-08T14:22:55;5.60;69.50
60495;DHT22;46342;49.046;11.920;2022-12-08T14:25:22;5.50;69.60
60495;DHT22;46342;49.046;11.920;2022-12-08T14:27:47;5.50;69.60
60495;DHT22;46342;49.046;11.920;2022-12-08T14:32:45;5.40;69.40
60495;DHT22;46342;49.046;11.920;2022-12-08T14:35:18;5.40;69.20
60495;DHT22;46342;49.046;11.920;2022-12-08T14:37:47;5.40;69.00
60495;DHT22;46342;49.046;11.920;2022-12-08T14:40:34;5.30;69.10
60495;DHT22;46342;49.046;11.920;2022-12-08T14:48:22;5.20;68.80
60495;DHT22;46342;49.046;11.920;2022-12-08T14:53:22;5.20;68.80
60495;DHT22;46342;49.046;11.920;2022-12-08T14:55:48;5.10;69.00
60495;DHT22;46342;49.046;11.920;2022-12-08T14:58:21;5.00;68.90
60495;DHT22;46342;49.046;11.920;2022-12-08T15:00:49;5.00;68.70
60495;DHT22;46342;49.046;11.920;2022-12-08T15:03:16;5.00;68.90
60495;DHT22;46342;49.046;11.920;2022-12-08T15:05:42;5.00;68.30
60495;DHT22;46342;49.046;11.920;2022-12-08T15:08:09;4.90;68.70
60495;DHT22;46342;49.046;11.920;2022-12-08T15:10:37;4.90;68.70
60495;DHT22;46342;49.046;11.920;2022-12-08T15:15:55;4.70;68.40
60495;DHT22;46342;49.046;11.920;2022-12-08T15:18:50;4.70;68.40
60495;DHT22;46342;49.046;11.920;2022-12-08T15:21:28;4.60;68.30
60495;DHT22;46342;49.046;11.920;2022-12-08T15:23:55;4.60;68.60
60495;DHT22;46342;49.046;11.920;2022-12-08T15:26:22;4.50;68.60
60495;DHT22;46342;49.046;11.920;2022-12-08T15:28:49;4.50;68.70
60495;DHT22;46342;49.046;11.920;2022-12-08T15:31:16;4.40;68.70
60495;DHT22;46342;49.046;11.920;2022-12-08T15:33:41;4.40;68.80
60495;DHT22;46342;49.046;11.920;2022-12-08T15:36:08;4.30;68.80
60495;DHT22;46342;49.046;11.920;2022-12-08T15:38:34;4.30;68.90
60495;DHT22;46342;49.046;11.920;2022-12-08T15:40:59;4.20;68.80
60495;DHT22;46342;49.046;11.920;2022-12-08T15:43:26;4.20;68.90
60495;DHT22;46342;49.046;11.920;2022-12-08T15:45:52;4.20;69.00
60495;DHT22;46342;49.046;11.920;2022-12-08T15:48:21;4.10;68.90
60495;DHT22;46342;49.046;11.920;2022-12-08T15:50:48;4.20;69.00
60495;DHT22;46342;49.046;11.920;2022-12-08T15:53:14;4.10;69.00
60495;DHT22;46342;49.046;11.920;2022-12-08T15:55:40;4.10;69.00
60495;DHT22;46342;49.046;11.920;2022-12-08T15:58:06;4.00;68.90
60495;DHT22;46342;49.046;11.920;2022-12-08T16:00:34;4.00;68.90
60495;DHT22;46342;49.046;11.920;2022-12-08T16:03:00;3.90;68.80
60495;DHT22;46342;49.046;11.920;2022-12-08T16:05:28;4.00;68.50
60495;DHT22;46342;49.046;11.920;2022-12-08T16:07:54;4.00;68.70
60495;DHT22;46342;49.046;11.920;2022-12-08T16:10:23;3.80;68.70
60495;DHT22;46342;49.046;11.920;2022-12-08T16:12:49;3.80;68.80
60495;DHT22;46342;49.046;11.920;2022-12-08T16:15:36;3.80;68.90
60495;DHT22;46342;49.046;11.920;2022-12-08T16:18:03;3.80;68.90
60495;DHT22;46342;49.046;11.920;2022-12-08T16:20:29;3.70;68.90
60495;DHT22;46342;49.046;11.920;2022-12-08T16:22:54;3.70;68.90
60495;DHT22;46342;49.046;11.920;2022-12-08T16:25:21;3.70;68.90
60495;DHT22;46342;49.046;11.920;2022-12-08T16:27:52;3.60;68.90
60495;DHT22;46342;49.046;11.920;2022-12-08T16:30:18;3.60;69.00
60495;DHT22;46342;49.046;11.920;2022-12-08T16:32:44;3.60;69.10
60495;DHT22;46342;49.046;11.920;2022-12-08T16:35:11;3.60;69.20
60495;DHT22;46342;49.046;11.920;2022-12-08T16:37:37;3.50;69.30
60495;DHT22;46342;49.046;11.920;2022-12-08T16:40:03;3.50;69.40
60495;DHT22;46342;49.046;11.920;2022-12-08T16:42:30;3.50;69.50
60495;DHT22;46342;49.046;11.920;2022-12-08T16:47:34;3.50;69.60
60495;DHT22;46342;49.046;11.920;2022-12-08T16:50:02;3.50;69.70
60495;DHT22;46342;49.046;11.920;2022-12-08T16:52:27;3.50;69.70
60495;DHT22;46342;49.046;11.920;2022-12-08T16:54:53;3.50;69.80
60495;DHT22;46342;49.046;11.920;2022-12-08T16:57:18;3.50;69.90
60495;DHT22;46342;49.046;11.920;2022-12-08T16:59:44;3.50;70.00
60495;DHT22;46342;49.046;11.920;2022-12-08T17:02:10;3.50;70.10
60495;DHT22;46342;49.046;11.920;2022-12-08T17:04:35;3.50;70.20
60495;DHT22;46342;49.046;11.920;2022-12-08T17:07:01;3.50;70.20
60495;DHT22;46342;49.046;11.920;2022-12-08T17:09:27;3.50;70.10
60495;DHT22;46342;49.046;11.920;2022-12-08T17:11:53;3.50;70.10
60495;DHT22;46342;49.046;11.920;2022-12-08T17:14:18;3.50;70.10
60495;DHT22;46342;49.046;11.920;2022-12-08T17:16:44;3.50;70.20
60495;DHT22;46342;49.046;11.920;2022-12-08T17:19:14;3.60;70.30
60495;DHT22;46342;49.046;11.920;2022-12-08T17:21:40;3.50;70.10
60495;DHT22;46342;49.046;11.920;2022-12-08T17:24:06;3.50;70.10
60495;DHT22;46342;49.046;11.920;2022-12-08T17:26:32;3.50;70.20
60495;DHT22;46342;49.046;11.920;2022-12-08T17:28:58;3.50;70.20
60495;DHT22;46342;49.046;11.920;2022-12-08T17:31:23;3.50;70.20
60495;DHT22;46342;49.046;11.920;2022-12-08T17:33:49;3.50;70.20
60495;DHT22;46342;49.046;11.920;2022-12-08T17:36:15;3.50;70.20
60495;DHT22;46342;49.046;11.920;2022-12-08T17:38:42;3.50;70.20
60495;DHT22;46342;49.046;11.920;2022-12-08T17:41:09;3.50;70.20